Headquarters, Valles Caldera, New Mexico Weather observations

Data are for 10 minute period ending at time listed.
 Day   Time   Solar   Ave.   Ave.  Ave.  Vector  Max.   Baro.   Total    
  of    of     Rad.   Air    Rel.  Wind   Wind   Wind  Press.  Precip.   
Year   Day            Temp.  Hum.  Speed  Dir.   Gust                    
2017   (MST)  Kw/m2    F      %     mph   deg.    mph    mb.     in.     
-------------------------------------------------------------------------
 149    0:00   0.00   41.2    59    4.1   298     6.6   744.6    0.00 
 149    0:10   0.00   38.6    66    3.8   235     6.6   744.7    0.00 
 149    0:20   0.00   38.8    66    4.4   251     5.4   744.7    0.00 
 149    0:30   0.00   39.3    66    5.0   272     6.6   744.7    0.00 
 149    0:40   0.00   40.1    65    4.5   285     7.2   744.7    0.00 
 149    0:50   0.00   40.6    64    4.9   294     6.6   744.6    0.00 
 149    1:00   0.00   39.7    66    4.2   255     6.6   744.6    0.00 
 149    1:10   0.00   39.5    68    3.0   277     6.0   744.5    0.00 
 149    1:20   0.00   41.8    64    4.0   240     6.6   744.4    0.00 
 149    1:30   0.00   43.1    62    4.4   280     6.6   744.4    0.00 
 149    1:40   0.00   42.6    63    5.2   298     7.2   744.4    0.00 
 149    1:50   0.00   41.5    65    4.0   277     6.0   744.3    0.00 
 149    2:00   0.00   40.5    67    4.5   266     7.8   744.2    0.00 
 149    2:10   0.00   39.5    68    3.6   264     6.6   744.1    0.00 
 149    2:20   0.00   38.6    70    4.1   270     5.4   744.1    0.00 
 149    2:30   0.00   38.3    70    3.8   274     6.0   744.1    0.00 
 149    2:40   0.00   36.6    73    3.0   282     4.2   744.1    0.00 
 149    2:50   0.00   37.6    70    2.7   263     3.6   744.1    0.00 
 149    3:00   0.00   37.9    69    4.0   278     4.8   744.0    0.00 
 149    3:10   0.00   36.9    71    4.1   266     5.4   743.9    0.00 
 149    3:20   0.00   36.8    72    4.0   286     4.8   743.9    0.00 
 149    3:30   0.00   36.5    72    4.3   274     6.0   743.9    0.00 
 149    3:40   0.00   35.8    75    4.2   290     4.8   744.0    0.00 
 149    3:50   0.00   35.4    75    1.6   255     4.8   743.9    0.00 
 149    4:00   0.00   35.5    76    3.2   288     4.2   743.9    0.00 
 149    4:10   0.00   35.2    76    3.1   276     4.2   743.9    0.00 
 149    4:20   0.00   35.1    76    3.1   267     4.8   743.9    0.00 
 149    4:30   0.00   34.7    77    3.7   297     5.4   744.0    0.00 
 149    4:40   0.00   34.0    77    0.6   299     2.4   744.1    0.00 
 149    4:50   0.00   33.5    81    2.6   280     4.2   744.0    0.00 
 149    5:00   0.00   34.3    78    2.4   290     3.0   744.1    0.00 
 149    5:10   0.01   34.6    77    3.2   256     4.8   744.2    0.00 
 149    5:20   0.01   34.9    77    3.2   280     4.2   744.3    0.00 
 149    5:30   0.02   35.2    76    1.0   310     3.0   744.4    0.00 
 149    5:40   0.02   34.4    78    1.8   262     3.6   744.4    0.00 
 149    5:50   0.02   33.2    82    2.8   236     4.8   744.5    0.00 
 149    6:00   0.09   35.1    81    2.0   265     5.4   744.5    0.00 
 149    6:10   0.16   38.3    74    1.5   102     3.6   744.6    0.00 
 149    6:20   0.18   37.8    72    2.2    67     4.2   744.7    0.00 
 149    6:30   0.21   38.1    72    2.8    84     4.8   744.6    0.00 
 149    6:40   0.24   39.8    69    2.0    61     4.8   744.6    0.00 
 149    6:50   0.27   41.9    65    3.3    72     4.8   744.6    0.00 
 149    7:00   0.30   42.6    65    3.1    83     4.2   744.6    0.00 
 149    7:10   0.32   44.7    62    1.6    74     3.6   744.7    0.00 
 149    7:20   0.35   47.3    57    2.4    79     4.2   744.8    0.00 
 149    7:30   0.39   47.9    56    3.7    86     6.0   744.9    0.00 
 149    7:40   0.41   49.8    54    3.3    76     6.0   745.0    0.00 
 149    7:50   0.45   51.6    52    3.4    68     6.6   745.0    0.00 
 149    8:00   0.47   53.2    49    3.3    84     6.6   744.9    0.00 
 149    8:10   0.49   55.8    44    7.0   170    14.9   744.9    0.00 
 149    8:20   0.51   58.0    39   10.4   195    17.9   744.9    0.00 
 149    8:30   0.53   59.4    37    9.8   235    16.1   744.9    0.00 
 149    8:40   0.55   60.0    36   11.2   205    16.1   744.9    0.00 
 149    8:50   0.58   59.0    38   10.7   195    17.3   744.9    0.00 
 149    9:00   0.60   59.8    38   11.0   215    20.9   745.0    0.00 
 149    9:10   0.62   60.8    36   11.1   220    17.3   745.0    0.00 
 149    9:20   0.64   61.4    35    9.7   233    16.1   744.9    0.00 
 149    9:30   0.67   61.5    36   11.3   212    16.7   744.9    0.00 
 149    9:40   0.70   61.2    36   11.0   220    19.1   744.9    0.00 
 149    9:50   0.73   62.1    35   11.5   228    19.1   744.9    0.00 
 149   10:00   0.64   61.8    34   10.1   247    16.7   744.9    0.00 
 149   10:10   0.77   61.9    34   10.9   235    17.3   744.9    0.00 
 149   10:20   0.81   63.1    34   11.2   220    17.9   744.9    0.00 
 149   10:30   0.61   63.0    34    9.6   223    17.3   744.8    0.00 
 149   10:40   0.85   62.3    35   10.3   194    20.9   744.7    0.00 
 149   10:50   0.75   62.1    34   11.9   197    19.1   744.6    0.00 
 149   11:00   0.83   63.4    33   10.1   219    18.5   744.6    0.00 
 149   11:10   0.44   62.1    32   11.9   209    18.5   744.5    0.00 
 149   11:20   0.45   59.7    35   11.3   194    22.1   744.4    0.00 
 149   11:30   0.44   60.2    35   10.3   217    19.7   744.4    0.00 
 149   11:40   0.77   62.3    33   11.6   210    20.3   744.3    0.00 
 149   11:50   0.70   63.2    30   11.2   228    20.3   744.1    0.00 
 149   12:00   0.69   63.6    29   11.0   218    22.1   744.1    0.00 
 149   12:10   0.73   62.8    29   10.8   206    19.1   744.0    0.00 
 149   12:20   0.42   61.6    28   10.4   211    18.5   743.9    0.00 
 149   12:30   0.83   64.3    28    9.2   234    17.9   743.8    0.00 
 149   12:40   0.40   64.3    27    9.3   232    19.7   743.8    0.00 
 149   12:50   0.21   61.4    28    9.3   198    18.5   743.6    0.00 
 149   13:00   0.51   61.4    30   10.2   220    22.7   743.5    0.00 
 149   13:10   0.62   64.0    29   11.3   208    21.5   743.3    0.00 
 149   13:20   0.12   60.1    31    7.3   184    15.5   743.3    0.00 
 149   13:30   0.06   59.0    32   10.0   223    17.3   743.4    0.00 
 149   13:40   0.04   57.8    34   11.2   214    19.1   743.5    0.00 
 149   13:50   0.03   57.1    33    9.7   236    17.3   743.7    0.00 
 149   14:00   0.04   56.0    32    5.3   283    11.3   743.9    0.00 
 149   14:10   0.09   55.8    32    6.0   298    19.1   743.8    0.00 
 149   14:20   0.21   54.7    33    8.2   322    25.0   743.9    0.00 
 149   14:30   0.52   56.9    31    6.8   352    11.9   743.7    0.00 
 149   14:40   0.45   58.8    30    5.4   350    12.5   743.5    0.00 
 149   14:50   0.37   58.7    30    5.9     4    10.2   743.2    0.00 
 149   15:00   0.47   59.8    31    5.7    24    13.1   743.3    0.00 
 149   15:10   0.29   59.8    30    8.2   243    16.1   743.6    0.00 
 149   15:20   0.33   59.2    33   12.4   217    19.7   743.6    0.00 
 149   15:30   0.29   57.5    37   12.2   222    19.7   743.6    0.00 
 149   15:40   0.37   57.8    37   11.8   215    16.7   743.5    0.00 
 149   15:50   0.54   59.2    37    9.7   220    16.1   743.4    0.00 
 149   16:00   0.62   61.7    31   11.1   212    16.7   743.3    0.00 
 149   16:10   0.50   61.6    30    9.1   223    15.5   743.3    0.00 
 149   16:20   0.38   60.7    29    8.8   224    14.9   743.2    0.00 
 149   16:30   0.23   59.4    30    9.8   205    15.5   743.1    0.00 
 149   16:40   0.30   58.4    31    9.2   220    13.7   743.1    0.00 
 149   16:50   0.35   59.1    31    8.6   216    11.9   743.0    0.00 
 149   17:00   0.40   60.3    30    7.1   228    10.8   742.9    0.00 
 149   17:10   0.35   60.5    30    5.6   212     9.6   742.9    0.00 
 149   17:20   0.30   57.8    35    8.8   175    14.3   743.0    0.00 
 149   17:30   0.29   56.4    38    9.5   187    15.5   743.1    0.00 
 149   17:40   0.25   55.8    39    8.8   179    14.3   743.1    0.00 
 149   17:50   0.18   55.3    39    7.1   170    10.2   743.0    0.00 
 149   18:00   0.10   53.9    41    7.0   176    11.3   743.0    0.00 
 149   18:10   0.04   53.4    42    5.8   189    12.5   743.0    0.00 
 149   18:20   0.03   52.1    46    3.6   250     6.6   743.0    0.00 
 149   18:30   0.03   51.5    45    5.5   243     9.0   742.9    0.00 
 149   18:40   0.02   52.1    41    6.1   236     9.0   743.0    0.00 
 149   18:50   0.01   52.1    40    7.5   224    13.1   743.0    0.00 
 149   19:00   0.01   50.8    42    4.8   198    11.9   743.2    0.00 
 149   19:10   0.01   49.9    52    6.5   179    10.8   743.2    0.00 
 149   19:20   0.00   48.5    52    5.6   224     9.0   743.2    0.00 
 149   19:30   0.00   47.9    55    6.8   216     9.6   743.3    0.00 
 149   19:40   0.00   47.5    56    4.9   221    10.2   743.3    0.00 
 149   19:50   0.00   45.4    63    4.2    10     6.0   743.5    0.00 
 149   20:00   0.00   43.7    70    2.5    32     4.8   743.5    0.00 
 149   20:10   0.00   42.5    73    2.0   336     3.6   743.7    0.00 
 149   20:20   0.00   43.0    72    2.6   263     7.8   743.7    0.00 
 149   20:30   0.00   41.6    73    4.9   241     7.8   743.7    0.00 
 149   20:40   0.00   40.7    72    4.8   227     8.4   743.8    0.00 
 149   20:50   0.00   40.2    70    1.8   315     4.8   743.9    0.00 
 149   21:00   0.00   39.6    73    2.3   321     3.6   744.0    0.00 
 149   21:10   0.00   41.1    67    0.3   313     1.8   744.1    0.00 
 149   21:20   0.00   40.8    69    1.2   320     3.0   744.2    0.00 
 149   21:30   0.00   41.2    67    0.0     0     0.0   744.2    0.00 
 149   21:40   0.00   39.4    69    1.4   110     4.8   744.2    0.00 
 149   21:50   0.00   37.7    79    3.2   351     5.4   744.3    0.00 
 149   22:00   0.00   37.8    80    1.5   310     3.0   744.4    0.00 
 149   22:10   0.00   36.4    80    3.2   226     4.8   744.4    0.00 
 149   22:20   0.00   36.1    84    2.8   252     4.2   744.5    0.00 
 149   22:30   0.00   37.8    80    2.3   270     4.2   744.4    0.00 
 149   22:40   0.00   38.1    79    1.5   283     3.6   744.4    0.00 
 149   22:50   0.00   38.5    77    1.0   288     3.0   744.4    0.00 
 149   23:00   0.00   38.0    77    0.9    12     3.0   744.4    0.00 
 149   23:10   0.00   38.1    78    1.1   316     3.0   744.4    0.00 

Return to Headquarters, Valles Caldera graphs page.


Western Regional Climate Center,wrcc@dri.edu